Time;durP1;ratioP1;P1;durP2;ratioP2;P2;SDS_P1;SDS_P2;PMS_P1;PMS_P2;Temp;Humidity;BMP_temperature;BMP_pressure;BME280_temperature;BME280_humidity;BME280_pressure;Samples;Min_cycle;Max_cycle;Signal;HPM_P1;HPM_P2
2023/10/29 00:02:24;;;;;;;30.95;27.73;;;11.00;99.90;;;;;;4898945;29;20084;-81
2023/10/29 00:04:50;;;;;;;24.45;22.20;;;11.00;99.90;;;;;;4923298;29;20032;-83
2023/10/29 00:07:15;;;;;;;30.83;27.85;;;11.00;99.90;;;;;;4965041;28;20120;-82
2023/10/29 00:09:41;;;;;;;45.05;31.20;;;11.00;99.90;;;;;;4938402;29;20182;-82
2023/10/29 00:12:07;;;;;;;30.13;27.15;;;11.00;99.90;;;;;;4915276;29;20044;-83
2023/10/29 00:14:32;;;;;;;31.95;28.52;;;11.10;99.90;;;;;;4913454;29;20039;-82
2023/10/29 00:16:58;;;;;;;38.45;29.55;;;11.10;99.90;;;;;;4956201;29;20090;-82
2023/10/29 00:19:23;;;;;;;42.78;30.80;;;11.10;99.90;;;;;;4934940;29;20044;-81
2023/10/29 00:21:49;;;;;;;47.22;31.52;;;11.10;99.90;;;;;;4937699;29;20040;-82
2023/10/29 00:24:14;;;;;;;20.70;18.98;;;11.10;99.90;;;;;;4923388;29;20039;-82
2023/10/29 00:26:40;;;;;;;25.40;22.92;;;11.10;99.90;;;;;;4929943;29;20049;-82
2023/10/29 00:29:06;;;;;;;27.88;24.70;;;11.20;99.90;;;;;;4956806;29;20050;-81
2023/10/29 00:31:32;;;;;;;24.02;21.77;;;11.20;99.90;;;;;;4928743;29;20475;-82
2023/10/29 00:33:57;;;;;;;25.45;23.10;;;11.20;99.90;;;;;;4933570;29;20667;-82
2023/10/29 00:36:23;;;;;;;43.80;30.65;;;11.30;99.90;;;;;;4927997;29;20086;-82
2023/10/29 00:38:48;;;;;;;25.52;22.88;;;11.20;99.90;;;;;;4921391;29;20038;-82
2023/10/29 00:41:14;;;;;;;23.17;20.95;;;11.20;99.90;;;;;;4917238;29;20103;-82
2023/10/29 00:43:40;;;;;;;26.40;23.83;;;11.30;99.90;;;;;;4936713;29;20414;-82
2023/10/29 00:46:06;;;;;;;24.00;21.83;;;11.30;99.90;;;;;;4937455;29;20692;-82
2023/10/29 00:48:33;;;;;;;19.27;17.88;;;11.30;99.90;;;;;;4937851;29;20040;-82
2023/10/29 00:50:59;;;;;;;28.45;25.50;;;11.40;99.90;;;;;;4931420;29;20411;-81
2023/10/29 00:53:25;;;;;;;23.25;21.02;;;11.40;99.90;;;;;;4920276;29;20043;-82
2023/10/29 00:55:51;;;;;;;32.72;27.55;;;11.40;99.90;;;;;;4922624;29;20054;-82
2023/10/29 00:58:19;;;;;;;23.98;21.52;;;11.40;99.90;;;;;;4923815;29;20050;-80
2023/10/29 01:00:45;;;;;;;24.73;22.55;;;11.40;99.90;;;;;;4939856;29;20036;-80
2023/10/29 01:03:11;;;;;;;21.17;19.38;;;11.40;99.90;;;;;;4921969;29;20036;-81
2023/10/29 01:05:37;;;;;;;29.73;26.10;;;11.40;99.90;;;;;;4928533;29;20040;-81
2023/10/29 01:08:05;;;;;;;24.02;21.70;;;11.40;99.90;;;;;;4938235;29;20116;-81
2023/10/29 01:10:31;;;;;;;22.80;20.35;;;11.40;99.90;;;;;;4924020;29;20139;-81
2023/10/29 01:12:57;;;;;;;20.50;18.80;;;11.40;99.90;;;;;;4921924;29;20051;-82
2023/10/29 01:15:22;;;;;;;21.88;19.75;;;11.50;99.90;;;;;;4922963;29;20049;-82
2023/10/29 01:17:48;;;;;;;26.65;23.90;;;11.50;99.90;;;;;;4916945;29;20035;-82
2023/10/29 01:20:14;;;;;;;17.92;16.27;;;11.60;99.90;;;;;;4924452;29;20455;-82
2023/10/29 01:22:39;;;;;;;18.15;16.48;;;11.60;99.90;;;;;;4931192;29;20039;-82
2023/10/29 01:25:09;;;;;;;25.30;21.08;;;11.60;99.90;;;;;;4921910;29;20036;-82
2023/10/29 01:27:38;;;;;;;17.45;15.23;;;11.60;99.90;;;;;;4940417;29;20039;-82
2023/10/29 01:30:07;;;;;;;19.52;17.17;;;11.60;99.90;;;;;;4938002;29;20039;-82
2023/10/29 01:32:33;;;;;;;20.08;15.13;;;11.60;99.90;;;;;;4939740;29;20035;-82
2023/10/29 01:34:58;;;;;;;12.93;11.25;;;11.60;99.90;;;;;;4936072;29;20034;-82
2023/10/29 01:37:24;;;;;;;12.00;10.35;;;11.70;99.90;;;;;;4926924;29;20039;-82
2023/10/29 01:39:50;;;;;;;11.95;10.13;;;11.70;99.90;;;;;;4923498;29;20043;-82
2023/10/29 01:42:16;;;;;;;12.60;11.30;;;11.70;99.90;;;;;;4920829;29;20065;-82
2023/10/29 01:44:42;;;;;;;14.30;9.55;;;11.70;99.90;;;;;;4958046;29;20425;-82
2023/10/29 01:47:07;;;;;;;8.68;6.07;;;11.70;99.90;;;;;;4939507;29;20053;-82
2023/10/29 01:49:36;;;;;;;10.90;8.13;;;11.70;99.90;;;;;;4959932;29;20050;-82
2023/10/29 01:52:01;;;;;;;10.25;7.43;;;11.70;99.90;;;;;;4954595;29;20094;-82
2023/10/29 01:54:27;;;;;;;16.52;11.23;;;11.70;99.90;;;;;;4944647;29;20043;-81
2023/10/29 01:56:52;;;;;;;7.75;6.38;;;11.80;99.90;;;;;;4956688;29;20082;-82
2023/10/29 01:59:18;;;;;;;9.65;6.70;;;11.80;99.90;;;;;;4919298;29;20517;-82
2023/10/29 02:01:44;;;;;;;7.63;5.82;;;11.80;99.90;;;;;;4939280;29;20039;-82
2023/10/29 02:04:12;;;;;;;8.93;4.75;;;11.80;99.90;;;;;;4925017;29;20039;-81
2023/10/29 02:06:40;;;;;;;7.53;4.85;;;11.80;99.90;;;;;;4920572;29;20047;-81
2023/10/29 02:09:08;;;;;;;10.20;5.88;;;11.90;99.90;;;;;;4942510;29;20090;-82
2023/10/29 02:11:35;;;;;;;8.43;5.05;;;11.80;99.90;;;;;;4928945;29;20043;-81
2023/10/29 02:14:01;;;;;;;8.02;4.93;;;11.80;99.90;;;;;;4942307;29;20126;-81
2023/10/29 02:16:27;;;;;;;4.55;3.65;;;11.80;99.90;;;;;;4920549;29;20139;-81
2023/10/29 02:18:52;;;;;;;7.13;4.45;;;11.70;99.90;;;;;;4920902;29;20039;-81
2023/10/29 02:21:19;;;;;;;6.47;4.43;;;11.70;99.90;;;;;;4932882;29;20044;-81
2023/10/29 02:23:45;;;;;;;4.90;3.97;;;11.70;99.90;;;;;;4914594;29;20046;-81
2023/10/29 02:26:11;;;;;;;7.43;4.32;;;11.80;99.90;;;;;;4920625;29;20044;-81
2023/10/29 02:28:37;;;;;;;8.50;4.25;;;11.80;99.90;;;;;;4920841;29;20039;-81
2023/10/29 02:31:03;;;;;;;6.70;3.78;;;11.70;99.90;;;;;;4931224;28;20073;-81
2023/10/29 02:33:30;;;;;;;8.45;4.60;;;11.70;99.90;;;;;;4938254;29;20040;-81
2023/10/29 02:35:56;;;;;;;7.90;3.97;;;11.60;99.90;;;;;;4936882;29;20051;-81
2023/10/29 02:38:22;;;;;;;8.02;3.60;;;11.60;99.90;;;;;;4946291;29;20121;-81
2023/10/29 02:40:48;;;;;;;8.90;4.30;;;11.60;99.90;;;;;;4933377;29;20109;-81
2023/10/29 02:43:14;;;;;;;7.03;3.85;;;11.60;99.90;;;;;;4933329;29;20494;-81
2023/10/29 02:45:41;;;;;;;7.10;4.60;;;11.60;99.90;;;;;;4941082;29;20375;-81
2023/10/29 02:48:06;;;;;;;5.80;3.28;;;11.60;99.90;;;;;;4940068;29;20076;-81
2023/10/29 02:50:32;;;;;;;8.73;4.15;;;11.60;99.90;;;;;;4951093;29;20043;-80
2023/10/29 02:52:57;;;;;;;7.50;5.32;;;11.60;99.90;;;;;;4932815;29;20051;-81
2023/10/29 02:55:23;;;;;;;7.03;3.75;;;11.70;99.90;;;;;;4956623;29;20125;-81
2023/10/29 02:57:48;;;;;;;5.78;3.10;;;11.70;99.90;;;;;;4941210;29;20042;-81
2023/10/29 03:00:14;;;;;;;5.78;3.20;;;11.70;99.90;;;;;;4944832;29;20044;-81
2023/10/29 03:02:40;;;;;;;6.45;3.67;;;11.80;99.90;;;;;;4940277;29;20035;-81
2023/10/29 03:05:09;;;;;;;6.53;2.80;;;11.80;99.90;;;;;;4933065;29;20094;-82
2023/10/29 03:07:34;;;;;;;4.50;3.10;;;11.80;99.90;;;;;;4923534;29;20521;-81
2023/10/29 03:10:00;;;;;;;4.78;2.30;;;11.90;99.90;;;;;;4939721;29;20039;-80
2023/10/29 03:12:25;;;;;;;4.55;2.13;;;12.00;99.90;;;;;;4921604;29;20108;-81
2023/10/29 03:14:51;;;;;;;4.53;2.88;;;12.00;99.90;;;;;;4929143;29;20119;-81
2023/10/29 03:17:16;;;;;;;4.47;2.08;;;12.00;99.90;;;;;;4918388;29;20052;-80
2023/10/29 03:19:42;;;;;;;4.45;2.15;;;12.10;99.90;;;;;;4903439;29;20046;-80
2023/10/29 03:22:08;;;;;;;5.43;2.20;;;12.10;99.90;;;;;;4903473;29;20062;-80
2023/10/29 03:24:33;;;;;;;4.05;2.25;;;12.20;99.90;;;;;;4954862;29;20043;-80
2023/10/29 03:26:59;;;;;;;6.10;2.33;;;12.10;99.90;;;;;;4941673;29;20073;-81
2023/10/29 03:29:24;;;;;;;4.53;1.77;;;12.10;99.90;;;;;;4952307;23;20047;-82
2023/10/29 03:31:50;;;;;;;5.45;2.08;;;12.10;99.90;;;;;;4918236;29;20043;-82
2023/10/29 03:34:16;;;;;;;3.85;2.17;;;12.10;99.90;;;;;;4931216;29;20039;-82
2023/10/29 03:36:41;;;;;;;4.65;2.05;;;12.10;99.90;;;;;;4911715;29;20047;-82
2023/10/29 03:39:07;;;;;;;6.90;2.17;;;12.00;99.90;;;;;;4913667;29;20045;-82
2023/10/29 03:41:33;;;;;;;4.63;2.00;;;12.00;99.90;;;;;;4888599;29;20414;-82
2023/10/29 03:43:58;;;;;;;5.35;2.30;;;12.00;99.90;;;;;;4914377;29;20040;-82
2023/10/29 03:46:24;;;;;;;4.65;2.35;;;12.00;99.90;;;;;;4914362;29;20538;-82
2023/10/29 03:48:50;;;;;;;4.38;2.05;;;12.10;99.90;;;;;;4898697;29;20052;-82
2023/10/29 03:51:16;;;;;;;5.15;2.00;;;12.10;99.90;;;;;;4895857;29;20044;-82
2023/10/29 03:53:41;;;;;;;2.70;1.85;;;12.10;99.90;;;;;;4884211;29;20072;-82
2023/10/29 03:56:08;;;;;;;6.05;2.40;;;12.20;99.90;;;;;;4879825;29;20147;-81
2023/10/29 03:58:33;;;;;;;4.53;2.20;;;12.20;99.90;;;;;;4895794;29;20044;-82
2023/10/29 04:01:01;;;;;;;5.25;2.20;;;12.20;99.90;;;;;;4884623;29;20124;-82
2023/10/29 04:03:28;;;;;;;6.47;2.35;;;12.20;99.90;;;;;;4914183;29;20036;-82
2023/10/29 04:05:54;;;;;;;4.00;1.60;;;12.10;99.90;;;;;;4877260;29;20037;-82
2023/10/29 04:08:19;;;;;;;6.07;2.20;;;12.10;99.90;;;;;;4895845;29;20088;-82
2023/10/29 04:10:45;;;;;;;4.57;2.50;;;12.10;99.90;;;;;;4911518;29;20119;-82
2023/10/29 04:13:10;;;;;;;5.20;1.80;;;12.10;99.90;;;;;;4898533;29;20080;-82
2023/10/29 04:15:36;;;;;;;4.43;2.15;;;12.10;99.90;;;;;;4898398;29;20135;-82
2023/10/29 04:18:01;;;;;;;2.70;1.65;;;12.10;99.90;;;;;;4894988;29;20063;-82
2023/10/29 04:20:27;;;;;;;4.38;1.92;;;12.10;99.90;;;;;;4894411;29;20048;-82
2023/10/29 04:22:53;;;;;;;3.72;1.92;;;12.10;99.90;;;;;;4907540;29;20035;-82
2023/10/29 04:25:19;;;;;;;3.22;1.50;;;12.10;99.90;;;;;;4898552;29;20400;-81
2023/10/29 04:27:44;;;;;;;4.82;1.70;;;12.10;99.90;;;;;;4898435;29;20036;-81
2023/10/29 04:30:10;;;;;;;3.72;1.92;;;12.10;99.90;;;;;;4913225;29;20171;-81
2023/10/29 04:32:36;;;;;;;3.97;1.52;;;12.20;99.90;;;;;;4900128;29;20051;-81
2023/10/29 04:35:01;;;;;;;2.67;1.60;;;12.20;99.90;;;;;;4878455;29;20063;-81
2023/10/29 04:37:27;;;;;;;4.03;1.50;;;12.10;99.90;;;;;;4911179;29;20036;-81
2023/10/29 04:39:53;;;;;;;3.78;1.88;;;12.10;99.90;;;;;;4879563;29;20041;-82
2023/10/29 04:42:18;;;;;;;3.58;1.45;;;12.10;99.90;;;;;;4904712;29;20525;-82
2023/10/29 04:44:44;;;;;;;3.47;1.50;;;12.10;99.90;;;;;;4898005;29;20037;-81
2023/10/29 04:47:09;;;;;;;4.38;1.75;;;12.00;99.90;;;;;;4891048;29;20587;-81
2023/10/29 04:49:35;;;;;;;4.70;1.30;;;12.00;99.90;;;;;;4894261;29;20045;-81
2023/10/29 04:52:00;;;;;;;3.63;1.52;;;11.90;99.90;;;;;;4878495;29;20492;-82
2023/10/29 04:54:26;;;;;;;4.03;1.30;;;12.00;99.90;;;;;;4895866;29;20055;-83
2023/10/29 04:56:51;;;;;;;4.13;1.60;;;12.00;99.90;;;;;;4894841;29;20522;-81
2023/10/29 04:59:17;;;;;;;3.45;1.58;;;12.00;99.90;;;;;;4892374;29;20411;-82
2023/10/29 05:01:42;;;;;;;3.22;1.38;;;12.00;99.90;;;;;;4889109;29;20130;-81
2023/10/29 05:04:08;;;;;;;4.45;1.80;;;12.00;99.90;;;;;;4882422;29;20123;-81
2023/10/29 05:06:33;;;;;;;3.72;1.42;;;12.10;99.90;;;;;;4882487;29;20082;-82
2023/10/29 05:08:59;;;;;;;5.22;1.60;;;12.10;99.90;;;;;;4895290;29;20427;-81
2023/10/29 05:11:25;;;;;;;5.30;1.55;;;12.10;99.90;;;;;;4888280;29;20511;-81
2023/10/29 05:13:50;;;;;;;3.85;1.30;;;12.10;99.90;;;;;;4898092;29;20048;-81
2023/10/29 05:16:17;;;;;;;5.53;1.50;;;12.00;99.90;;;;;;4897258;29;20419;-82
2023/10/29 05:18:42;;;;;;;4.47;1.60;;;12.00;99.90;;;;;;4894934;29;20510;-82
2023/10/29 05:21:08;;;;;;;2.47;1.17;;;12.00;99.90;;;;;;4916682;29;20036;-82
2023/10/29 05:23:38;;;;;;;2.92;1.35;;;12.00;99.90;;;;;;4901150;29;20044;-82
2023/10/29 05:26:04;;;;;;;5.00;1.48;;;12.00;99.90;;;;;;4884967;29;20515;-81
2023/10/29 05:28:29;;;;;;;4.80;1.50;;;12.10;99.90;;;;;;4890951;29;20082;-81
2023/10/29 05:30:55;;;;;;;3.97;1.40;;;12.10;99.90;;;;;;4900756;29;20083;-81
2023/10/29 05:33:20;;;;;;;3.60;1.25;;;12.00;99.90;;;;;;4901110;29;20048;-81
2023/10/29 05:35:46;;;;;;;3.35;1.33;;;12.10;99.90;;;;;;4916462;29;20047;-81
2023/10/29 05:38:12;;;;;;;4.22;1.20;;;12.10;99.90;;;;;;4902153;29;20036;-82
2023/10/29 05:40:38;;;;;;;3.72;1.40;;;12.10;99.90;;;;;;4897323;29;20052;-81
2023/10/29 05:43:04;;;;;;;3.25;1.40;;;12.10;99.90;;;;;;4897665;29;20049;-81
2023/10/29 05:45:29;;;;;;;5.03;1.40;;;12.10;99.90;;;;;;4881565;29;20407;-81
2023/10/29 05:47:58;;;;;;;3.72;1.20;;;12.10;99.90;;;;;;4880909;29;20108;-81
2023/10/29 05:50:24;;;;;;;3.45;1.45;;;12.00;99.90;;;;;;4889811;29;20040;-81
2023/10/29 05:52:49;;;;;;;4.32;1.23;;;12.10;99.90;;;;;;4881743;29;20047;-81
2023/10/29 05:55:15;;;;;;;3.58;1.20;;;12.10;99.90;;;;;;4881285;29;20491;-81
2023/10/29 05:57:40;;;;;;;4.47;1.25;;;12.10;99.90;;;;;;4891762;29;20527;-82
2023/10/29 06:00:07;;;;;;;3.92;1.20;;;12.10;99.90;;;;;;4889442;29;20068;-81
2023/10/29 06:02:33;;;;;;;4.10;1.33;;;12.10;99.90;;;;;;4897314;29;20139;-81
2023/10/29 06:04:58;;;;;;;5.70;1.30;;;12.10;99.90;;;;;;4879914;29;20119;-81
2023/10/29 06:07:24;;;;;;;4.05;1.23;;;12.10;99.90;;;;;;4908064;29;20052;-81
2023/10/29 06:09:51;;;;;;;4.25;1.40;;;12.00;99.90;;;;;;4889538;29;20131;-81
2023/10/29 06:12:18;;;;;;;3.42;0.98;;;12.00;99.90;;;;;;4881510;29;20451;-81
2023/10/29 06:14:45;;;;;;;2.72;1.27;;;12.00;99.90;;;;;;4890744;29;20050;-82
2023/10/29 06:17:11;;;;;;;3.15;1.08;;;12.00;99.90;;;;;;4912354;29;20036;-81
2023/10/29 06:19:36;;;;;;;3.30;1.30;;;12.00;99.90;;;;;;4892060;29;20518;-81
2023/10/29 06:22:02;;;;;;;4.13;1.30;;;12.10;99.90;;;;;;4878832;29;20072;-81
2023/10/29 06:24:27;;;;;;;3.58;1.25;;;12.00;99.90;;;;;;4879952;29;20037;-81
2023/10/29 06:26:53;;;;;;;3.15;1.40;;;12.10;99.90;;;;;;4899612;29;20137;-82
2023/10/29 06:29:19;;;;;;;6.15;1.23;;;12.10;99.90;;;;;;4911247;29;20044;-81
2023/10/29 06:31:44;;;;;;;5.30;1.27;;;12.10;99.90;;;;;;4894006;29;20410;-81
2023/10/29 06:34:10;;;;;;;5.10;1.33;;;12.10;99.90;;;;;;4894696;29;20518;-81
2023/10/29 06:36:36;;;;;;;5.95;1.13;;;12.00;99.90;;;;;;4902386;29;20067;-81
2023/10/29 06:39:01;;;;;;;4.90;1.10;;;12.00;99.90;;;;;;4899794;29;20138;-81
2023/10/29 06:41:27;;;;;;;4.60;1.20;;;12.00;99.90;;;;;;4906241;29;20036;-80
2023/10/29 06:43:52;;;;;;;7.35;1.45;;;11.90;99.90;;;;;;4900850;29;20406;-81
2023/10/29 06:46:18;;;;;;;4.55;1.02;;;11.90;99.90;;;;;;4907221;29;20037;-80
2023/10/29 06:48:43;;;;;;;5.75;1.48;;;11.90;99.90;;;;;;4888655;29;20166;-81
2023/10/29 06:51:14;;;;;;;2.95;1.05;;;11.90;99.90;;;;;;4893690;29;20052;-80
2023/10/29 06:53:40;;;;;;;3.75;1.25;;;11.90;99.90;;;;;;4914729;29;20047;-80
2023/10/29 06:56:06;;;;;;;5.72;1.23;;;11.90;99.90;;;;;;4888849;29;20040;-80
2023/10/29 06:58:32;;;;;;;4.47;1.30;;;11.90;99.90;;;;;;4926003;29;20515;-80
2023/10/29 07:01:09;;;;;;;6.38;1.40;;;11.90;99.90;;;;;;4907999;29;20046;-79
2023/10/29 07:03:35;;;;;;;6.10;1.60;;;11.80;99.90;;;;;;4894027;29;20124;-79
2023/10/29 07:06:08;;;;;;;4.78;1.20;;;11.80;99.90;;;;;;4907716;29;20032;-80
2023/10/29 07:08:35;;;;;;;4.53;1.60;;;11.80;99.90;;;;;;4910981;29;20138;-80
2023/10/29 07:11:02;;;;;;;5.75;1.40;;;11.80;99.90;;;;;;4895058;29;20040;-80
2023/10/29 07:13:28;;;;;;;5.22;1.40;;;11.90;99.90;;;;;;4896655;29;20159;-80
2023/10/29 07:15:55;;;;;;;4.72;1.20;;;12.00;99.90;;;;;;4907851;29;20056;-81
2023/10/29 07:18:24;;;;;;;3.65;1.40;;;12.00;99.90;;;;;;4895277;29;20044;-81
2023/10/29 07:20:54;;;;;;;5.43;1.10;;;12.10;99.90;;;;;;4894326;29;20043;-81
2023/10/29 07:23:20;;;;;;;4.82;1.30;;;12.10;99.90;;;;;;4904026;29;20128;-81
2023/10/29 07:25:47;;;;;;;4.88;1.40;;;12.10;99.90;;;;;;4905960;29;20048;-81
2023/10/29 07:28:14;;;;;;;5.05;1.20;;;12.00;99.90;;;;;;4905548;29;20407;-83
2023/10/29 07:30:39;;;;;;;6.25;1.58;;;12.00;99.90;;;;;;4900992;29;20513;-80
2023/10/29 07:33:05;;;;;;;5.72;1.20;;;12.00;99.90;;;;;;4893773;29;20122;-81
2023/10/29 07:35:31;;;;;;;3.65;1.10;;;12.00;99.90;;;;;;4914283;29;20067;-80
2023/10/29 07:37:56;;;;;;;5.07;1.40;;;12.00;99.90;;;;;;4914716;29;20080;-81
2023/10/29 07:40:22;;;;;;;6.07;1.30;;;12.00;99.90;;;;;;4911251;29;20180;-80
2023/10/29 07:42:47;;;;;;;7.28;1.65;;;12.00;99.90;;;;;;4895544;29;20036;-81
2023/10/29 07:45:13;;;;;;;3.90;1.30;;;12.00;99.90;;;;;;4895363;29;20044;-81
2023/10/29 07:47:39;;;;;;;6.75;1.60;;;12.00;99.90;;;;;;4895654;29;20131;-81
2023/10/29 07:50:06;;;;;;;6.88;1.70;;;12.00;99.90;;;;;;4880189;29;20037;-81
2023/10/29 07:52:36;;;;;;;6.15;1.40;;;12.00;99.90;;;;;;4894210;29;20051;-80
2023/10/29 07:55:02;;;;;;;5.50;1.30;;;12.00;99.90;;;;;;4895496;29;20040;-81
2023/10/29 07:57:27;;;;;;;6.70;1.70;;;11.90;99.90;;;;;;4894115;29;20041;-81
2023/10/29 07:59:53;;;;;;;5.25;1.38;;;12.00;99.90;;;;;;4895636;29;20071;-81
2023/10/29 08:02:19;;;;;;;3.92;1.35;;;11.90;99.90;;;;;;4895520;29;20051;-81
2023/10/29 08:04:44;;;;;;;6.78;1.52;;;12.00;99.90;;;;;;4895296;29;20127;-81
2023/10/29 08:07:10;;;;;;;6.38;1.55;;;11.90;99.90;;;;;;4893491;29;20071;-81
2023/10/29 08:09:35;;;;;;;8.23;1.50;;;12.00;99.90;;;;;;4879801;29;20082;-81
2023/10/29 08:12:01;;;;;;;5.28;1.50;;;12.00;99.90;;;;;;4895674;29;20511;-81
2023/10/29 08:14:27;;;;;;;5.45;1.70;;;11.90;99.90;;;;;;4879830;29;20044;-81
2023/10/29 08:16:53;;;;;;;6.47;1.42;;;11.90;99.90;;;;;;4895193;29;20107;-81
2023/10/29 08:19:18;;;;;;;4.63;1.40;;;11.90;99.90;;;;;;4894733;29;20037;-81
2023/10/29 08:21:44;;;;;;;5.88;1.60;;;11.90;99.90;;;;;;4894984;29;20158;-80
2023/10/29 08:24:10;;;;;;;6.47;1.50;;;12.00;99.90;;;;;;4895551;29;20048;-81
2023/10/29 08:26:35;;;;;;;4.82;1.20;;;12.00;99.90;;;;;;4895047;29;20136;-80
2023/10/29 08:29:01;;;;;;;7.50;1.25;;;12.10;99.90;;;;;;4895091;29;20140;-80
2023/10/29 08:31:27;;;;;;;6.13;1.13;;;12.10;99.90;;;;;;4897842;29;20040;-80
2023/10/29 08:33:54;;;;;;;4.85;1.13;;;12.10;99.90;;;;;;4911218;29;20048;-82
2023/10/29 08:36:20;;;;;;;5.20;1.55;;;12.10;99.90;;;;;;4899918;29;20100;-81
2023/10/29 08:38:45;;;;;;;5.22;1.60;;;12.20;99.90;;;;;;4908816;29;20503;-80
2023/10/29 08:41:15;;;;;;;5.32;1.48;;;12.20;99.90;;;;;;4883526;29;20092;-80
2023/10/29 08:43:41;;;;;;;5.60;1.20;;;12.30;99.90;;;;;;4897817;29;20037;-80
2023/10/29 08:46:07;;;;;;;14.45;1.98;;;12.30;99.90;;;;;;4899242;29;20052;-80
2023/10/29 08:48:33;;;;;;;6.40;1.50;;;12.40;99.90;;;;;;4898471;29;20083;-80
2023/10/29 08:50:58;;;;;;;7.28;1.58;;;12.50;99.90;;;;;;4903789;29;20084;-83
2023/10/29 08:53:24;;;;;;;6.55;1.45;;;12.60;99.90;;;;;;4883141;29;20040;-83
2023/10/29 08:55:51;;;;;;;7.22;1.58;;;12.60;99.90;;;;;;4897654;29;20464;-83
2023/10/29 08:58:17;;;;;;;6.35;1.60;;;12.80;99.90;;;;;;4906413;29;20407;-80
2023/10/29 09:00:44;;;;;;;6.40;2.42;;;12.80;99.90;;;;;;4891757;29;20044;-79
2023/10/29 09:03:13;;;;;;;4.80;1.35;;;12.80;99.90;;;;;;4911097;29;20044;-81
2023/10/29 09:05:39;;;;;;;7.00;1.70;;;12.80;99.90;;;;;;4905374;29;20053;-80
2023/10/29 09:08:04;;;;;;;7.28;1.88;;;12.90;99.90;;;;;;4912000;29;20498;-80
2023/10/29 09:10:30;;;;;;;6.45;1.63;;;12.90;99.90;;;;;;4909324;29;20315;-80
2023/10/29 09:12:56;;;;;;;6.60;1.52;;;13.00;99.90;;;;;;4910881;29;20506;-80
2023/10/29 09:15:21;;;;;;;7.45;1.98;;;13.10;99.90;;;;;;4905672;29;20050;-80
2023/10/29 09:17:47;;;;;;;5.43;1.65;;;13.10;99.90;;;;;;4901332;29;20036;-80
2023/10/29 09:20:13;;;;;;;6.63;1.80;;;13.20;99.90;;;;;;4894668;29;20037;-80
2023/10/29 09:22:39;;;;;;;8.82;1.80;;;13.40;99.90;;;;;;4903107;29;20051;-80
2023/10/29 09:25:05;;;;;;;7.35;2.08;;;13.50;99.90;;;;;;4898253;29;20143;-80
2023/10/29 09:27:30;;;;;;;7.10;2.10;;;13.80;99.90;;;;;;4907038;29;20385;-80
2023/10/29 09:29:56;;;;;;;7.13;1.77;;;14.00;99.90;;;;;;4898652;29;20097;-79
2023/10/29 09:32:23;;;;;;;5.70;1.73;;;14.20;99.90;;;;;;4905258;29;20054;-80
2023/10/29 09:34:50;;;;;;;6.10;1.63;;;14.30;99.90;;;;;;4904874;29;20404;-79
2023/10/29 09:37:16;;;;;;;6.80;1.83;;;14.20;99.90;;;;;;4895855;29;20415;-80
2023/10/29 09:39:43;;;;;;;4.90;1.60;;;14.10;99.90;;;;;;4901241;29;20036;-80
2023/10/29 09:42:11;;;;;;;7.30;2.08;;;14.10;99.90;;;;;;4913523;29;20459;-79
2023/10/29 09:44:40;;;;;;;7.85;2.22;;;14.10;99.90;;;;;;4892243;29;20550;-80
2023/10/29 09:47:26;;;;;;;5.65;1.67;;;14.00;99.90;;;;;;4914362;29;20637;-78
2023/10/29 09:49:56;;;;;;;7.57;1.90;;;14.10;99.90;;;;;;4881218;29;20483;-79
2023/10/29 09:52:31;;;;;;;10.80;2.85;;;14.30;99.90;;;;;;4906466;29;20051;-80
2023/10/29 09:54:58;;;;;;;7.47;2.33;;;14.30;99.90;;;;;;4914141;29;20044;-80
2023/10/29 09:57:23;;;;;;;7.60;2.20;;;14.10;99.90;;;;;;4918261;29;20059;-80
2023/10/29 09:59:49;;;;;;;5.32;1.90;;;14.00;99.90;;;;;;4917832;29;20411;-80
2023/10/29 10:02:14;;;;;;;7.95;2.10;;;13.90;99.90;;;;;;4905887;29;20036;-80
2023/10/29 10:04:40;;;;;;;8.32;2.13;;;13.80;99.90;;;;;;4908169;29;20133;-79
2023/10/29 10:07:06;;;;;;;8.88;2.40;;;13.70;99.90;;;;;;4899623;29;20055;-80
2023/10/29 10:09:57;;;;;;;6.53;1.80;;;13.60;99.90;;;;;;4916669;29;20048;-79
2023/10/29 10:12:25;;;;;;;8.40;2.30;;;13.50;99.90;;;;;;4911498;29;20040;-79
2023/10/29 10:14:52;;;;;;;5.97;1.85;;;13.60;99.90;;;;;;4903684;29;20045;-80
2023/10/29 10:17:17;;;;;;;8.95;2.10;;;13.70;99.90;;;;;;4906098;29;20040;-78
2023/10/29 10:19:43;;;;;;;7.22;1.90;;;13.70;99.90;;;;;;4880622;29;20491;-79
2023/10/29 10:22:09;;;;;;;7.22;1.83;;;13.80;99.90;;;;;;4901788;29;20519;-80
2023/10/29 10:24:40;;;;;;;9.02;1.92;;;13.80;99.90;;;;;;4906918;29;20040;-82
2023/10/29 10:27:06;;;;;;;8.82;2.15;;;13.80;99.90;;;;;;4889251;29;20499;-79
2023/10/29 10:29:32;;;;;;;7.72;1.88;;;13.80;99.90;;;;;;4895808;29;20033;-79
2023/10/29 10:32:05;;;;;;;10.38;2.25;;;13.80;99.90;;;;;;4881132;29;20049;-79
2023/10/29 10:34:34;;;;;;;8.55;2.20;;;13.80;99.90;;;;;;4909414;29;20044;-81
2023/10/29 10:37:04;;;;;;;9.02;2.60;;;13.90;99.90;;;;;;4909041;29;20398;-78
2023/10/29 10:39:31;;;;;;;9.65;2.22;;;14.00;99.90;;;;;;4915151;29;20040;-80
2023/10/29 10:41:59;;;;;;;8.30;2.40;;;14.10;99.90;;;;;;4893047;29;20516;-78
2023/10/29 10:44:26;;;;;;;11.85;2.33;;;14.10;99.90;;;;;;4892912;29;20047;-80
2023/10/29 10:46:54;;;;;;;5.93;2.28;;;14.10;99.90;;;;;;4900403;29;20047;-79
2023/10/29 10:49:21;;;;;;;11.23;2.40;;;14.20;99.90;;;;;;4913725;29;20507;-79
2023/10/29 10:51:49;;;;;;;9.43;2.10;;;14.20;99.90;;;;;;4879588;29;20166;-79
2023/10/29 10:54:18;;;;;;;10.20;2.30;;;14.20;99.90;;;;;;4895585;29;20052;-80
2023/10/29 10:56:44;;;;;;;7.60;2.03;;;14.10;99.90;;;;;;4895498;29;20100;-79
2023/10/29 10:59:09;;;;;;;8.32;2.10;;;14.00;99.90;;;;;;4905028;29;20040;-79
2023/10/29 11:01:36;;;;;;;8.27;1.85;;;14.00;99.90;;;;;;4914533;29;20036;-78
2023/10/29 11:04:03;;;;;;;8.55;2.15;;;13.90;99.90;;;;;;4915137;29;20084;-80
2023/10/29 11:06:32;;;;;;;9.13;2.13;;;14.00;99.90;;;;;;4898630;29;20525;-78
2023/10/29 11:09:01;;;;;;;6.78;1.70;;;14.10;99.90;;;;;;4896247;29;20683;-78
2023/10/29 11:11:34;;;;;;;7.30;1.95;;;14.30;99.90;;;;;;4905038;29;20125;-79
2023/10/29 11:14:13;;;;;;;9.00;1.70;;;14.40;99.90;;;;;;4884254;29;20120;-78
2023/10/29 11:16:53;;;;;;;9.48;1.70;;;14.50;99.90;;;;;;4877421;29;20320;-79
2023/10/29 11:19:47;;;;;;;9.02;2.30;;;14.60;99.90;;;;;;4889676;29;20044;-79
2023/10/29 11:22:14;;;;;;;7.72;1.75;;;14.90;99.90;;;;;;4876373;29;20516;-80
2023/10/29 11:24:40;;;;;;;11.23;2.17;;;15.20;99.90;;;;;;4895634;29;20040;-79
2023/10/29 11:27:37;;;;;;;6.05;1.73;;;15.30;99.90;;;;;;4901907;29;20048;-79
2023/10/29 11:30:12;;;;;;;8.93;1.80;;;15.40;99.90;;;;;;4907280;29;20395;-79
2023/10/29 11:32:39;;;;;;;8.13;1.80;;;15.40;99.90;;;;;;4897045;29;20083;-79
2023/10/29 11:35:19;;;;;;;8.00;1.75;;;15.30;99.90;;;;;;4894885;29;20048;-79
2023/10/29 11:37:46;;;;;;;8.55;1.90;;;15.10;99.90;;;;;;4861769;29;20041;-82
2023/10/29 11:40:24;;;;;;;7.45;1.77;;;14.90;99.90;;;;;;4906100;29;20052;-79
2023/10/29 11:42:54;;;;;;;11.88;1.95;;;14.80;99.90;;;;;;4863644;29;20063;-80
2023/10/29 11:45:26;;;;;;;8.35;2.00;;;14.70;99.90;;;;;;4896094;29;20037;-80
2023/10/29 11:48:10;;;;;;;7.82;1.80;;;14.60;99.90;;;;;;4895338;29;20067;-80
2023/10/29 11:51:02;;;;;;;7.63;1.92;;;14.50;99.90;;;;;;4889154;29;20519;-80
2023/10/29 11:53:28;;;;;;;6.55;1.90;;;14.40;99.90;;;;;;4898697;29;20072;-79
2023/10/29 11:55:57;;;;;;;7.85;1.88;;;14.30;99.90;;;;;;4906099;29;20462;-79
2023/10/29 11:58:23;;;;;;;8.73;2.08;;;14.30;99.90;;;;;;4911835;29;20048;-80
2023/10/29 12:00:49;;;;;;;10.00;2.28;;;14.30;99.90;;;;;;4906501;29;20099;-79
2023/10/29 12:03:20;;;;;;;7.53;1.92;;;14.20;99.90;;;;;;4894027;29;20029;-79
2023/10/29 12:05:52;;;;;;;6.30;1.60;;;14.20;99.90;;;;;;4902572;29;20047;-79
2023/10/29 12:08:18;;;;;;;;;;;14.20;99.90;;;;;;4893386;29;20048;-79
2023/10/29 12:10:49;;;;;;;9.20;2.10;;;14.10;99.90;;;;;;4911503;29;19987;-79
2023/10/29 12:13:18;;;;;;;8.80;2.17;;;14.10;99.90;;;;;;4883745;29;20044;-78
2023/10/29 12:15:50;;;;;;;8.20;1.73;;;14.10;99.90;;;;;;4893588;29;20119;-79
2023/10/29 12:18:22;;;;;;;7.05;1.50;;;14.10;99.90;;;;;;4900653;29;20467;-79
2023/10/29 12:20:48;;;;;;;9.07;1.67;;;14.10;99.90;;;;;;4890713;29;20396;-79
2023/10/29 12:23:14;;;;;;;8.45;1.90;;;14.00;99.90;;;;;;4894642;29;20036;-79
2023/10/29 12:25:40;;;;;;;11.13;2.50;;;14.00;99.90;;;;;;4911990;29;20060;-79
2023/10/29 12:28:08;;;;;;;8.23;1.83;;;14.00;99.90;;;;;;4911968;29;20117;-79
2023/10/29 12:30:37;;;;;;;9.43;2.17;;;13.90;99.90;;;;;;4915844;29;20058;-79
2023/10/29 12:33:23;;;;;;;7.93;2.00;;;13.90;99.90;;;;;;4894836;29;20044;-79
2023/10/29 12:35:50;;;;;;;11.77;1.88;;;13.90;99.90;;;;;;4895783;29;20044;-79
2023/10/29 12:38:17;;;;;;;9.63;2.08;;;13.80;99.90;;;;;;4891466;29;20045;-79
2023/10/29 12:41:06;;;;;;;8.23;2.45;;;13.80;99.90;;;;;;4901698;29;20055;-79
2023/10/29 12:43:36;;;;;;;9.15;2.17;;;13.70;99.90;;;;;;4919643;29;20085;-79